Antioch, California
Current Conditions -  °F | °C
As of 2:53 PM on Sunday 21 Dec 2014 (Local Time) from KCCR Reporting Station
Broken Clouds Broken Clouds  
Wind Chill: 66°   Ceiling: 20000
Heat Index: 66°   Visibility: 10mi
Dew Point: 58°   Wind: 10mph
Humidity: 75%   Direction: 280°W
Pressure: 30.25"   Gusts: 20mph
Location:  38.02°N, 121.81°W
Report Text: KCCR 212253Z 28009G17KT 10SM SCT016 BKN200 19/14 A3025 RMK AO2 SLP229 T01890144
Loading
Personal Weather Stations






























Interactive Weather Map New forecast layout! Learn more

10-Day Weather Forecast

Advertisements
Track Severe Weather on mobile